sensor_id;sensor_type;location;lat;lon;timestamp;temperature;humidity
65179;DHT22;51849;47.476;8.084;2022-07-06T00:01:36;16.70;67.90
65179;DHT22;51849;47.476;8.084;2022-07-06T00:04:02;16.60;68.30
65179;DHT22;51849;47.476;8.084;2022-07-06T00:06:31;16.50;68.40
65179;DHT22;51849;47.476;8.084;2022-07-06T00:09:00;16.40;68.60
65179;DHT22;51849;47.476;8.084;2022-07-06T00:11:26;16.40;68.80
65179;DHT22;51849;47.476;8.084;2022-07-06T00:13:51;16.40;68.90
65179;DHT22;51849;47.476;8.084;2022-07-06T00:16:18;16.40;69.00
65179;DHT22;51849;47.476;8.084;2022-07-06T00:18:44;16.30;69.00
65179;DHT22;51849;47.476;8.084;2022-07-06T00:21:10;16.30;68.90
65179;DHT22;51849;47.476;8.084;2022-07-06T00:23:36;16.30;68.90
65179;DHT22;51849;47.476;8.084;2022-07-06T00:26:02;16.30;68.50
65179;DHT22;51849;47.476;8.084;2022-07-06T00:28:28;16.30;68.10
65179;DHT22;51849;47.476;8.084;2022-07-06T00:30:54;16.30;68.00
65179;DHT22;51849;47.476;8.084;2022-07-06T00:33:21;16.30;68.10
65179;DHT22;51849;47.476;8.084;2022-07-06T00:35:47;16.30;68.10
65179;DHT22;51849;47.476;8.084;2022-07-06T00:38:13;16.40;68.10
65179;DHT22;51849;47.476;8.084;2022-07-06T00:40:39;16.30;68.00
65179;DHT22;51849;47.476;8.084;2022-07-06T00:43:05;16.30;68.30
65179;DHT22;51849;47.476;8.084;2022-07-06T00:45:30;16.20;68.60
65179;DHT22;51849;47.476;8.084;2022-07-06T00:47:56;16.20;68.60
65179;DHT22;51849;47.476;8.084;2022-07-06T00:50:22;16.20;68.80
65179;DHT22;51849;47.476;8.084;2022-07-06T00:52:50;16.20;69.00
65179;DHT22;51849;47.476;8.084;2022-07-06T00:55:24;16.20;69.00
65179;DHT22;51849;47.476;8.084;2022-07-06T00:57:56;16.20;69.20
65179;DHT22;51849;47.476;8.084;2022-07-06T01:00:23;16.20;69.50
65179;DHT22;51849;47.476;8.084;2022-07-06T01:02:50;16.20;69.80
65179;DHT22;51849;47.476;8.084;2022-07-06T01:05:17;16.10;70.30
65179;DHT22;51849;47.476;8.084;2022-07-06T01:07:45;16.10;70.70
65179;DHT22;51849;47.476;8.084;2022-07-06T01:10:12;16.00;70.90
65179;DHT22;51849;47.476;8.084;2022-07-06T01:12:40;16.00;70.80
65179;DHT22;51849;47.476;8.084;2022-07-06T01:15:08;16.00;70.00
65179;DHT22;51849;47.476;8.084;2022-07-06T01:17:39;15.90;69.70
65179;DHT22;51849;47.476;8.084;2022-07-06T01:20:07;15.90;69.90
65179;DHT22;51849;47.476;8.084;2022-07-06T04:51:39;15.40;71.70
65179;DHT22;51849;47.476;8.084;2022-07-06T04:54:20;15.60;71.30
65179;DHT22;51849;47.476;8.084;2022-07-06T04:57:00;15.80;71.20
65179;DHT22;51849;47.476;8.084;2022-07-06T04:59:51;16.00;70.50
65179;DHT22;51849;47.476;8.084;2022-07-06T05:02:42;16.20;69.80
65179;DHT22;51849;47.476;8.084;2022-07-06T05:05:17;16.40;69.50
65179;DHT22;51849;47.476;8.084;2022-07-06T05:07:42;16.60;68.30
65179;DHT22;51849;47.476;8.084;2022-07-06T05:13:32;16.80;67.50
65179;DHT22;51849;47.476;8.084;2022-07-06T05:15:58;17.10;67.00
65179;DHT22;51849;47.476;8.084;2022-07-06T05:18:24;17.20;66.80
65179;DHT22;51849;47.476;8.084;2022-07-06T05:21:01;17.40;65.70
65179;DHT22;51849;47.476;8.084;2022-07-06T05:23:27;17.60;64.30
65179;DHT22;51849;47.476;8.084;2022-07-06T05:29:35;18.00;62.70
65179;DHT22;51849;47.476;8.084;2022-07-06T05:32:01;18.30;62.40
65179;DHT22;51849;47.476;8.084;2022-07-06T05:34:27;18.50;62.40
65179;DHT22;51849;47.476;8.084;2022-07-06T05:36:53;18.60;61.70
65179;DHT22;51849;47.476;8.084;2022-07-06T05:39:19;18.80;61.60
65179;DHT22;51849;47.476;8.084;2022-07-06T05:41:54;18.90;61.10
65179;DHT22;51849;47.476;8.084;2022-07-06T05:44:28;19.00;60.30
65179;DHT22;51849;47.476;8.084;2022-07-06T05:47:12;19.10;60.20
65179;DHT22;51849;47.476;8.084;2022-07-06T05:50:17;19.30;61.60
65179;DHT22;51849;47.476;8.084;2022-07-06T05:52:44;19.40;62.10
65179;DHT22;51849;47.476;8.084;2022-07-06T05:55:20;19.60;60.80
65179;DHT22;51849;47.476;8.084;2022-07-06T05:57:45;19.80;60.40
65179;DHT22;51849;47.476;8.084;2022-07-06T06:00:12;19.90;59.80
65179;DHT22;51849;47.476;8.084;2022-07-06T06:02:42;20.00;58.40
65179;DHT22;51849;47.476;8.084;2022-07-06T06:05:08;20.20;56.50
65179;DHT22;51849;47.476;8.084;2022-07-06T06:07:37;20.40;55.70
65179;DHT22;51849;47.476;8.084;2022-07-06T06:10:14;20.60;55.40
65179;DHT22;51849;47.476;8.084;2022-07-06T06:12:43;20.80;55.40
65179;DHT22;51849;47.476;8.084;2022-07-06T06:15:12;21.00;54.50
65179;DHT22;51849;47.476;8.084;2022-07-06T06:17:39;21.20;52.20
65179;DHT22;51849;47.476;8.084;2022-07-06T06:20:08;21.20;52.50
65179;DHT22;51849;47.476;8.084;2022-07-06T06:22:51;21.30;51.50
65179;DHT22;51849;47.476;8.084;2022-07-06T06:25:19;21.40;51.60
65179;DHT22;51849;47.476;8.084;2022-07-06T06:27:47;21.50;51.50
65179;DHT22;51849;47.476;8.084;2022-07-06T06:30:13;21.40;51.40
65179;DHT22;51849;47.476;8.084;2022-07-06T06:32:39;21.30;51.70
65179;DHT22;51849;47.476;8.084;2022-07-06T06:35:07;21.10;52.00
65179;DHT22;51849;47.476;8.084;2022-07-06T06:37:33;21.00;52.80
65179;DHT22;51849;47.476;8.084;2022-07-06T06:39:59;21.00;52.70
65179;DHT22;51849;47.476;8.084;2022-07-06T06:42:26;20.80;53.50
65179;DHT22;51849;47.476;8.084;2022-07-06T06:44:52;20.60;54.60
65179;DHT22;51849;47.476;8.084;2022-07-06T06:47:24;20.70;54.60
65179;DHT22;51849;47.476;8.084;2022-07-06T06:49:50;21.00;54.70
65179;DHT22;51849;47.476;8.084;2022-07-06T06:52:18;21.00;51.90
65179;DHT22;51849;47.476;8.084;2022-07-06T06:54:46;21.10;51.70
65179;DHT22;51849;47.476;8.084;2022-07-06T06:57:16;21.40;49.60
65179;DHT22;51849;47.476;8.084;2022-07-06T06:59:54;21.60;49.20
65179;DHT22;51849;47.476;8.084;2022-07-06T07:02:29;21.80;48.20
65179;DHT22;51849;47.476;8.084;2022-07-06T07:05:24;21.90;48.10
65179;DHT22;51849;47.476;8.084;2022-07-06T07:11:07;22.00;49.30
65179;DHT22;51849;47.476;8.084;2022-07-06T07:13:52;22.10;49.30
65179;DHT22;51849;47.476;8.084;2022-07-06T07:16:45;22.10;47.90
65179;DHT22;51849;47.476;8.084;2022-07-06T07:19:10;22.10;47.80
65179;DHT22;51849;47.476;8.084;2022-07-06T07:21:36;22.40;48.00
65179;DHT22;51849;47.476;8.084;2022-07-06T07:27:27;22.50;46.40
65179;DHT22;51849;47.476;8.084;2022-07-06T07:29:53;22.10;47.90
65179;DHT22;51849;47.476;8.084;2022-07-06T07:32:24;22.10;48.60
65179;DHT22;51849;47.476;8.084;2022-07-06T07:35:05;22.20;48.70
65179;DHT22;51849;47.476;8.084;2022-07-06T07:37:31;22.40;48.10
65179;DHT22;51849;47.476;8.084;2022-07-06T07:40:00;22.30;47.40
65179;DHT22;51849;47.476;8.084;2022-07-06T07:42:26;22.30;47.60
65179;DHT22;51849;47.476;8.084;2022-07-06T07:44:52;22.10;48.10
65179;DHT22;51849;47.476;8.084;2022-07-06T07:47:18;22.30;48.50
65179;DHT22;51849;47.476;8.084;2022-07-06T07:49:44;22.20;47.80
65179;DHT22;51849;47.476;8.084;2022-07-06T07:59:08;22.60;49.30
65179;DHT22;51849;47.476;8.084;2022-07-06T08:01:34;22.60;49.10
65179;DHT22;51849;47.476;8.084;2022-07-06T08:04:03;22.60;48.40
65179;DHT22;51849;47.476;8.084;2022-07-06T08:06:29;22.60;48.10
65179;DHT22;51849;47.476;8.084;2022-07-06T08:09:03;22.90;47.60
65179;DHT22;51849;47.476;8.084;2022-07-06T08:11:59;22.90;48.30
65179;DHT22;51849;47.476;8.084;2022-07-06T08:18:01;23.10;48.00
65179;DHT22;51849;47.476;8.084;2022-07-06T08:20:46;23.20;48.40
65179;DHT22;51849;47.476;8.084;2022-07-06T08:23:37;23.20;47.90
65179;DHT22;51849;47.476;8.084;2022-07-06T08:32:30;23.30;47.60
65179;DHT22;51849;47.476;8.084;2022-07-06T08:35:09;23.40;46.60
65179;DHT22;51849;47.476;8.084;2022-07-06T08:37:35;23.40;46.60
65179;DHT22;51849;47.476;8.084;2022-07-06T08:40:01;23.60;45.80
65179;DHT22;51849;47.476;8.084;2022-07-06T08:42:31;23.60;46.10
65179;DHT22;51849;47.476;8.084;2022-07-06T08:44:58;23.60;46.00
65179;DHT22;51849;47.476;8.084;2022-07-06T08:47:28;23.30;46.40
65179;DHT22;51849;47.476;8.084;2022-07-06T08:49:55;23.30;46.40
65179;DHT22;51849;47.476;8.084;2022-07-06T08:52:22;23.40;46.80
65179;DHT22;51849;47.476;8.084;2022-07-06T08:54:49;23.60;46.60
65179;DHT22;51849;47.476;8.084;2022-07-06T08:57:15;23.60;46.10
65179;DHT22;51849;47.476;8.084;2022-07-06T08:59:43;23.20;47.00
65179;DHT22;51849;47.476;8.084;2022-07-06T09:02:10;23.50;46.30
65179;DHT22;51849;47.476;8.084;2022-07-06T09:04:36;23.60;45.10
65179;DHT22;51849;47.476;8.084;2022-07-06T09:07:02;23.70;45.30
65179;DHT22;51849;47.476;8.084;2022-07-06T09:09:29;23.70;45.70
65179;DHT22;51849;47.476;8.084;2022-07-06T09:11:58;23.70;44.60
65179;DHT22;51849;47.476;8.084;2022-07-06T09:14:24;24.10;44.90
65179;DHT22;51849;47.476;8.084;2022-07-06T09:17:01;24.40;44.40
65179;DHT22;51849;47.476;8.084;2022-07-06T09:19:30;24.50;44.00
65179;DHT22;51849;47.476;8.084;2022-07-06T09:21:56;24.50;43.00
65179;DHT22;51849;47.476;8.084;2022-07-06T09:24:22;24.50;44.20
65179;DHT22;51849;47.476;8.084;2022-07-06T09:26:48;24.60;43.70
65179;DHT22;51849;47.476;8.084;2022-07-06T09:29:14;24.50;42.80
65179;DHT22;51849;47.476;8.084;2022-07-06T09:31:40;24.70;42.70
65179;DHT22;51849;47.476;8.084;2022-07-06T09:34:07;24.90;42.60
65179;DHT22;51849;47.476;8.084;2022-07-06T09:39:23;25.00;43.20
65179;DHT22;51849;47.476;8.084;2022-07-06T09:41:50;25.20;42.90
65179;DHT22;51849;47.476;8.084;2022-07-06T09:44:27;25.10;43.30
65179;DHT22;51849;47.476;8.084;2022-07-06T09:47:00;25.00;43.20
65179;DHT22;51849;47.476;8.084;2022-07-06T09:49:29;25.10;40.30
65179;DHT22;51849;47.476;8.084;2022-07-06T09:51:59;25.00;41.00
65179;DHT22;51849;47.476;8.084;2022-07-06T09:54:29;25.00;41.10
65179;DHT22;51849;47.476;8.084;2022-07-06T09:56:56;25.10;42.00
65179;DHT22;51849;47.476;8.084;2022-07-06T09:59:23;25.10;43.00
65179;DHT22;51849;47.476;8.084;2022-07-06T10:01:59;25.30;43.10
65179;DHT22;51849;47.476;8.084;2022-07-06T10:04:26;25.60;41.60
65179;DHT22;51849;47.476;8.084;2022-07-06T10:06:54;25.50;41.30
65179;DHT22;51849;47.476;8.084;2022-07-06T10:09:21;25.10;41.70
65179;DHT22;51849;47.476;8.084;2022-07-06T10:11:53;25.10;42.90
65179;DHT22;51849;47.476;8.084;2022-07-06T10:14:21;25.10;43.00
65179;DHT22;51849;47.476;8.084;2022-07-06T10:16:48;25.20;43.10
65179;DHT22;51849;47.476;8.084;2022-07-06T10:19:15;25.20;42.80
65179;DHT22;51849;47.476;8.084;2022-07-06T10:21:42;25.20;42.40
65179;DHT22;51849;47.476;8.084;2022-07-06T10:24:09;25.30;42.60
65179;DHT22;51849;47.476;8.084;2022-07-06T10:26:38;25.40;42.40
65179;DHT22;51849;47.476;8.084;2022-07-06T10:29:05;25.40;41.30
65179;DHT22;51849;47.476;8.084;2022-07-06T10:31:32;25.40;40.10
65179;DHT22;51849;47.476;8.084;2022-07-06T10:34:03;25.50;41.00
65179;DHT22;51849;47.476;8.084;2022-07-06T10:36:30;25.50;40.80
65179;DHT22;51849;47.476;8.084;2022-07-06T10:38:56;25.60;38.40
65179;DHT22;51849;47.476;8.084;2022-07-06T10:41:42;25.40;38.80
65179;DHT22;51849;47.476;8.084;2022-07-06T10:44:15;25.30;38.50
65179;DHT22;51849;47.476;8.084;2022-07-06T10:46:49;25.20;39.10
65179;DHT22;51849;47.476;8.084;2022-07-06T10:49:19;25.40;39.50
65179;DHT22;51849;47.476;8.084;2022-07-06T10:51:46;25.20;39.90
65179;DHT22;51849;47.476;8.084;2022-07-06T10:54:12;25.20;38.40
65179;DHT22;51849;47.476;8.084;2022-07-06T10:57:12;25.50;39.80
65179;DHT22;51849;47.476;8.084;2022-07-06T10:59:36;25.60;39.00
65179;DHT22;51849;47.476;8.084;2022-07-06T11:02:14;25.60;39.20
65179;DHT22;51849;47.476;8.084;2022-07-06T11:04:45;25.70;38.50
65179;DHT22;51849;47.476;8.084;2022-07-06T11:07:13;25.70;40.30
65179;DHT22;51849;47.476;8.084;2022-07-06T11:09:40;25.70;39.00
65179;DHT22;51849;47.476;8.084;2022-07-06T11:12:16;26.00;38.00
65179;DHT22;51849;47.476;8.084;2022-07-06T11:14:48;26.00;39.50
65179;DHT22;51849;47.476;8.084;2022-07-06T11:17:15;26.00;39.60
65179;DHT22;51849;47.476;8.084;2022-07-06T11:19:58;25.90;38.40
65179;DHT22;51849;47.476;8.084;2022-07-06T11:22:35;26.00;39.00
65179;DHT22;51849;47.476;8.084;2022-07-06T11:25:02;25.80;38.10
65179;DHT22;51849;47.476;8.084;2022-07-06T11:27:29;25.90;37.40
65179;DHT22;51849;47.476;8.084;2022-07-06T11:29:57;25.90;37.20
65179;DHT22;51849;47.476;8.084;2022-07-06T11:32:23;26.10;37.50
65179;DHT22;51849;47.476;8.084;2022-07-06T11:34:52;26.30;36.70
65179;DHT22;51849;47.476;8.084;2022-07-06T11:37:18;26.20;37.00
65179;DHT22;51849;47.476;8.084;2022-07-06T11:39:46;26.10;37.10
65179;DHT22;51849;47.476;8.084;2022-07-06T11:42:17;26.10;37.20
65179;DHT22;51849;47.476;8.084;2022-07-06T11:44:44;26.30;36.70
65179;DHT22;51849;47.476;8.084;2022-07-06T11:47:10;26.30;36.50
65179;DHT22;51849;47.476;8.084;2022-07-06T11:49:37;26.20;36.40
65179;DHT22;51849;47.476;8.084;2022-07-06T11:52:08;26.00;35.80
65179;DHT22;51849;47.476;8.084;2022-07-06T11:54:38;26.10;34.30
65179;DHT22;51849;47.476;8.084;2022-07-06T11:57:07;26.20;36.20
65179;DHT22;51849;47.476;8.084;2022-07-06T11:59:35;26.30;34.90
65179;DHT22;51849;47.476;8.084;2022-07-06T12:02:06;26.30;34.90
65179;DHT22;51849;47.476;8.084;2022-07-06T12:04:41;26.30;34.40
65179;DHT22;51849;47.476;8.084;2022-07-06T12:07:11;26.30;36.70
65179;DHT22;51849;47.476;8.084;2022-07-06T12:09:39;26.30;36.20
65179;DHT22;51849;47.476;8.084;2022-07-06T12:12:07;26.30;36.00
65179;DHT22;51849;47.476;8.084;2022-07-06T12:14:36;26.40;36.10
65179;DHT22;51849;47.476;8.084;2022-07-06T12:17:10;26.50;36.60
65179;DHT22;51849;47.476;8.084;2022-07-06T12:19:40;26.60;35.60
65179;DHT22;51849;47.476;8.084;2022-07-06T12:22:06;26.50;35.80
65179;DHT22;51849;47.476;8.084;2022-07-06T12:24:33;26.50;35.30
65179;DHT22;51849;47.476;8.084;2022-07-06T12:27:09;26.20;34.70
65179;DHT22;51849;47.476;8.084;2022-07-06T12:29:36;26.30;34.60
65179;DHT22;51849;47.476;8.084;2022-07-06T12:32:02;26.50;35.40
65179;DHT22;51849;47.476;8.084;2022-07-06T12:34:29;26.30;34.60
65179;DHT22;51849;47.476;8.084;2022-07-06T12:37:07;26.40;35.30
65179;DHT22;51849;47.476;8.084;2022-07-06T12:39:43;26.60;34.80
65179;DHT22;51849;47.476;8.084;2022-07-06T12:42:13;26.60;34.00
65179;DHT22;51849;47.476;8.084;2022-07-06T12:44:46;26.60;34.80
65179;DHT22;51849;47.476;8.084;2022-07-06T12:47:17;26.60;35.30
65179;DHT22;51849;47.476;8.084;2022-07-06T12:49:47;26.80;34.30
65179;DHT22;51849;47.476;8.084;2022-07-06T12:52:13;26.50;32.60
65179;DHT22;51849;47.476;8.084;2022-07-06T12:59:55;26.50;34.90
65179;DHT22;51849;47.476;8.084;2022-07-06T13:02:24;26.80;34.40
65179;DHT22;51849;47.476;8.084;2022-07-06T13:04:59;26.90;32.90
65179;DHT22;51849;47.476;8.084;2022-07-06T13:07:27;26.90;33.40
65179;DHT22;51849;47.476;8.084;2022-07-06T13:09:58;27.00;33.80
65179;DHT22;51849;47.476;8.084;2022-07-06T13:12:24;27.10;31.80
65179;DHT22;51849;47.476;8.084;2022-07-06T13:14:50;27.10;32.50
65179;DHT22;51849;47.476;8.084;2022-07-06T13:17:17;27.10;32.60
65179;DHT22;51849;47.476;8.084;2022-07-06T13:19:43;27.00;32.10
65179;DHT22;51849;47.476;8.084;2022-07-06T13:22:11;26.80;32.80
65179;DHT22;51849;47.476;8.084;2022-07-06T13:24:37;26.80;32.80
65179;DHT22;51849;47.476;8.084;2022-07-06T13:27:03;26.70;32.20
65179;DHT22;51849;47.476;8.084;2022-07-06T13:29:29;26.80;33.20
65179;DHT22;51849;47.476;8.084;2022-07-06T13:31:54;26.70;32.80
65179;DHT22;51849;47.476;8.084;2022-07-06T13:34:20;26.80;33.10
65179;DHT22;51849;47.476;8.084;2022-07-06T13:36:46;26.90;33.70
65179;DHT22;51849;47.476;8.084;2022-07-06T13:39:12;26.80;34.40
65179;DHT22;51849;47.476;8.084;2022-07-06T13:41:37;26.80;33.30
65179;DHT22;51849;47.476;8.084;2022-07-06T13:44:03;26.80;33.30
65179;DHT22;51849;47.476;8.084;2022-07-06T13:46:32;26.90;32.50
65179;DHT22;51849;47.476;8.084;2022-07-06T13:48:58;26.80;31.90
65179;DHT22;51849;47.476;8.084;2022-07-06T13:51:26;26.70;31.10
65179;DHT22;51849;47.476;8.084;2022-07-06T13:53:57;26.60;31.80
65179;DHT22;51849;47.476;8.084;2022-07-06T13:56:24;26.60;31.20
65179;DHT22;51849;47.476;8.084;2022-07-06T13:58:52;26.70;31.30
65179;DHT22;51849;47.476;8.084;2022-07-06T14:01:18;26.80;31.00
65179;DHT22;51849;47.476;8.084;2022-07-06T14:03:44;27.00;29.80
65179;DHT22;51849;47.476;8.084;2022-07-06T14:06:10;26.90;30.40
65179;DHT22;51849;47.476;8.084;2022-07-06T14:08:37;26.80;31.10
65179;DHT22;51849;47.476;8.084;2022-07-06T14:11:05;26.90;32.80
65179;DHT22;51849;47.476;8.084;2022-07-06T14:13:34;27.00;34.20
65179;DHT22;51849;47.476;8.084;2022-07-06T14:16:01;27.00;32.30
65179;DHT22;51849;47.476;8.084;2022-07-06T14:18:27;27.10;32.60
65179;DHT22;51849;47.476;8.084;2022-07-06T14:20:53;26.90;33.10
65179;DHT22;51849;47.476;8.084;2022-07-06T14:23:19;26.90;32.60
65179;DHT22;51849;47.476;8.084;2022-07-06T14:25:46;27.00;31.10
65179;DHT22;51849;47.476;8.084;2022-07-06T14:28:13;27.00;31.20
65179;DHT22;51849;47.476;8.084;2022-07-06T14:30:39;26.90;31.10
65179;DHT22;51849;47.476;8.084;2022-07-06T14:33:07;26.80;31.70
65179;DHT22;51849;47.476;8.084;2022-07-06T14:35:37;26.70;32.20
65179;DHT22;51849;47.476;8.084;2022-07-06T14:38:05;26.80;31.30
65179;DHT22;51849;47.476;8.084;2022-07-06T14:40:32;26.90;31.80
65179;DHT22;51849;47.476;8.084;2022-07-06T14:42:59;26.90;31.60
65179;DHT22;51849;47.476;8.084;2022-07-06T14:45:25;26.80;31.40
65179;DHT22;51849;47.476;8.084;2022-07-06T14:47:50;26.90;32.30
65179;DHT22;51849;47.476;8.084;2022-07-06T14:50:16;26.90;33.20
65179;DHT22;51849;47.476;8.084;2022-07-06T14:52:42;26.70;32.80
65179;DHT22;51849;47.476;8.084;2022-07-06T14:55:08;26.70;33.60
65179;DHT22;51849;47.476;8.084;2022-07-06T14:57:34;26.80;34.50
65179;DHT22;51849;47.476;8.084;2022-07-06T15:00:00;26.90;35.30
65179;DHT22;51849;47.476;8.084;2022-07-06T15:02:25;27.00;34.00
65179;DHT22;51849;47.476;8.084;2022-07-06T15:04:51;26.90;33.90
65179;DHT22;51849;47.476;8.084;2022-07-06T15:07:17;26.90;34.20
65179;DHT22;51849;47.476;8.084;2022-07-06T15:09:47;26.90;32.30
65179;DHT22;51849;47.476;8.084;2022-07-06T15:12:13;26.80;32.30
65179;DHT22;51849;47.476;8.084;2022-07-06T15:14:39;26.90;32.90
65179;DHT22;51849;47.476;8.084;2022-07-06T15:17:05;26.90;33.30
65179;DHT22;51849;47.476;8.084;2022-07-06T15:19:30;27.00;34.50
65179;DHT22;51849;47.476;8.084;2022-07-06T15:21:56;27.00;33.70
65179;DHT22;51849;47.476;8.084;2022-07-06T15:24:22;26.70;34.10
65179;DHT22;51849;47.476;8.084;2022-07-06T15:26:49;26.50;34.90
65179;DHT22;51849;47.476;8.084;2022-07-06T15:29:20;26.50;35.80
65179;DHT22;51849;47.476;8.084;2022-07-06T15:31:45;26.60;35.60
65179;DHT22;51849;47.476;8.084;2022-07-06T15:34:11;26.70;36.20
65179;DHT22;51849;47.476;8.084;2022-07-06T15:36:39;26.80;36.40
65179;DHT22;51849;47.476;8.084;2022-07-06T15:39:07;26.80;35.90
65179;DHT22;51849;47.476;8.084;2022-07-06T15:41:35;26.70;36.70
65179;DHT22;51849;47.476;8.084;2022-07-06T15:44:01;26.60;36.70
65179;DHT22;51849;47.476;8.084;2022-07-06T15:46:27;26.60;37.40
65179;DHT22;51849;47.476;8.084;2022-07-06T15:48:53;26.60;36.50
65179;DHT22;51849;47.476;8.084;2022-07-06T15:51:18;26.40;37.10
65179;DHT22;51849;47.476;8.084;2022-07-06T15:53:44;26.30;36.80
65179;DHT22;51849;47.476;8.084;2022-07-06T15:56:10;26.20;37.30
65179;DHT22;51849;47.476;8.084;2022-07-06T15:58:37;26.20;36.80
65179;DHT22;51849;47.476;8.084;2022-07-06T16:01:03;26.20;37.80
65179;DHT22;51849;47.476;8.084;2022-07-06T16:03:29;26.20;37.20
65179;DHT22;51849;47.476;8.084;2022-07-06T16:05:55;26.30;37.60
65179;DHT22;51849;47.476;8.084;2022-07-06T16:08:21;26.30;37.90
65179;DHT22;51849;47.476;8.084;2022-07-06T16:10:47;26.30;37.10
65179;DHT22;51849;47.476;8.084;2022-07-06T16:13:17;26.10;36.80
65179;DHT22;51849;47.476;8.084;2022-07-06T16:15:46;26.10;37.90
65179;DHT22;51849;47.476;8.084;2022-07-06T16:18:14;26.20;38.00
65179;DHT22;51849;47.476;8.084;2022-07-06T16:20:40;26.00;37.60
65179;DHT22;51849;47.476;8.084;2022-07-06T16:23:06;26.00;37.70
65179;DHT22;51849;47.476;8.084;2022-07-06T16:25:32;26.00;38.00
65179;DHT22;51849;47.476;8.084;2022-07-06T16:27:58;26.00;38.80
65179;DHT22;51849;47.476;8.084;2022-07-06T16:30:26;26.00;38.70
65179;DHT22;51849;47.476;8.084;2022-07-06T16:32:53;26.00;38.40
65179;DHT22;51849;47.476;8.084;2022-07-06T16:35:19;25.90;38.10
65179;DHT22;51849;47.476;8.084;2022-07-06T16:37:46;26.00;38.20
65179;DHT22;51849;47.476;8.084;2022-07-06T16:40:11;26.10;38.70
65179;DHT22;51849;47.476;8.084;2022-07-06T16:42:40;26.00;39.10
65179;DHT22;51849;47.476;8.084;2022-07-06T16:45:06;25.90;39.10
65179;DHT22;51849;47.476;8.084;2022-07-06T16:47:32;25.70;39.20
65179;DHT22;51849;47.476;8.084;2022-07-06T16:49:58;25.90;39.50
65179;DHT22;51849;47.476;8.084;2022-07-06T16:52:24;26.00;39.40
65179;DHT22;51849;47.476;8.084;2022-07-06T16:54:50;26.10;39.10
65179;DHT22;51849;47.476;8.084;2022-07-06T16:57:16;26.00;39.90
65179;DHT22;51849;47.476;8.084;2022-07-06T16:59:43;25.70;39.40
65179;DHT22;51849;47.476;8.084;2022-07-06T17:02:11;25.60;39.80
65179;DHT22;51849;47.476;8.084;2022-07-06T17:04:37;25.40;39.90
65179;DHT22;51849;47.476;8.084;2022-07-06T17:07:03;25.40;39.90
65179;DHT22;51849;47.476;8.084;2022-07-06T17:09:31;25.50;40.00
65179;DHT22;51849;47.476;8.084;2022-07-06T17:12:02;25.30;40.10
65179;DHT22;51849;47.476;8.084;2022-07-06T17:14:28;25.20;40.80
65179;DHT22;51849;47.476;8.084;2022-07-06T17:16:53;25.20;41.00
65179;DHT22;51849;47.476;8.084;2022-07-06T17:19:21;25.20;41.20
65179;DHT22;51849;47.476;8.084;2022-07-06T17:21:49;25.10;41.30
65179;DHT22;51849;47.476;8.084;2022-07-06T17:24:18;25.10;41.60
65179;DHT22;51849;47.476;8.084;2022-07-06T17:26:44;25.00;42.20
65179;DHT22;51849;47.476;8.084;2022-07-06T17:29:09;24.80;42.50
65179;DHT22;51849;47.476;8.084;2022-07-06T17:31:35;24.80;42.60
65179;DHT22;51849;47.476;8.084;2022-07-06T17:34:02;24.60;42.30
65179;DHT22;51849;47.476;8.084;2022-07-06T17:36:28;24.50;42.50
65179;DHT22;51849;47.476;8.084;2022-07-06T17:39:02;24.40;42.20
65179;DHT22;51849;47.476;8.084;2022-07-06T17:41:27;24.40;42.80
65179;DHT22;51849;47.476;8.084;2022-07-06T17:43:53;24.40;43.10
65179;DHT22;51849;47.476;8.084;2022-07-06T17:46:21;24.30;43.20
65179;DHT22;51849;47.476;8.084;2022-07-06T17:48:52;24.30;43.40
65179;DHT22;51849;47.476;8.084;2022-07-06T17:51:20;24.10;43.40
65179;DHT22;51849;47.476;8.084;2022-07-06T17:53:46;24.00;43.90
65179;DHT22;51849;47.476;8.084;2022-07-06T17:56:12;24.00;43.90
65179;DHT22;51849;47.476;8.084;2022-07-06T17:58:40;24.00;43.80
65179;DHT22;51849;47.476;8.084;2022-07-06T18:01:08;24.00;44.50
65179;DHT22;51849;47.476;8.084;2022-07-06T18:03:34;24.10;44.20
65179;DHT22;51849;47.476;8.084;2022-07-06T18:06:00;24.10;44.00
65179;DHT22;51849;47.476;8.084;2022-07-06T18:08:29;24.10;44.00
65179;DHT22;51849;47.476;8.084;2022-07-06T18:10:55;24.30;44.00
65179;DHT22;51849;47.476;8.084;2022-07-06T18:13:26;24.30;43.70
65179;DHT22;51849;47.476;8.084;2022-07-06T18:15:53;24.20;44.00
65179;DHT22;51849;47.476;8.084;2022-07-06T18:18:21;24.10;44.50
65179;DHT22;51849;47.476;8.084;2022-07-06T18:20:50;24.00;44.90
65179;DHT22;51849;47.476;8.084;2022-07-06T18:23:18;24.00;44.80
65179;DHT22;51849;47.476;8.084;2022-07-06T18:25:46;23.90;44.80
65179;DHT22;51849;47.476;8.084;2022-07-06T18:28:11;23.80;45.00
65179;DHT22;51849;47.476;8.084;2022-07-06T18:30:42;23.80;45.50
65179;DHT22;51849;47.476;8.084;2022-07-06T18:33:08;23.80;46.00
65179;DHT22;51849;47.476;8.084;2022-07-06T18:35:34;23.70;46.50
65179;DHT22;51849;47.476;8.084;2022-07-06T18:38:00;23.60;46.40
65179;DHT22;51849;47.476;8.084;2022-07-06T18:40:28;23.50;47.00
65179;DHT22;51849;47.476;8.084;2022-07-06T18:42:53;23.40;47.50
65179;DHT22;51849;47.476;8.084;2022-07-06T18:45:22;23.30;47.30
65179;DHT22;51849;47.476;8.084;2022-07-06T18:47:48;23.20;47.40
65179;DHT22;51849;47.476;8.084;2022-07-06T18:50:17;23.10;47.80
65179;DHT22;51849;47.476;8.084;2022-07-06T18:52:46;22.90;48.00
65179;DHT22;51849;47.476;8.084;2022-07-06T18:55:14;22.80;48.00
65179;DHT22;51849;47.476;8.084;2022-07-06T18:57:40;22.70;48.40
65179;DHT22;51849;47.476;8.084;2022-07-06T19:00:07;22.60;48.90
65179;DHT22;51849;47.476;8.084;2022-07-06T19:02:34;22.50;49.10
65179;DHT22;51849;47.476;8.084;2022-07-06T19:05:00;22.50;49.30
65179;DHT22;51849;47.476;8.084;2022-07-06T19:07:28;22.40;49.10
65179;DHT22;51849;47.476;8.084;2022-07-06T19:09:54;22.20;49.80
65179;DHT22;51849;47.476;8.084;2022-07-06T19:12:20;22.20;50.10
65179;DHT22;51849;47.476;8.084;2022-07-06T19:14:45;22.10;50.10
65179;DHT22;51849;47.476;8.084;2022-07-06T19:17:11;22.10;50.50
65179;DHT22;51849;47.476;8.084;2022-07-06T19:19:37;21.90;50.60
65179;DHT22;51849;47.476;8.084;2022-07-06T19:22:02;21.80;50.90
65179;DHT22;51849;47.476;8.084;2022-07-06T19:24:28;21.60;51.30
65179;DHT22;51849;47.476;8.084;2022-07-06T19:26:54;21.60;51.50
65179;DHT22;51849;47.476;8.084;2022-07-06T19:29:22;21.70;50.90
65179;DHT22;51849;47.476;8.084;2022-07-06T19:31:50;21.70;51.20
65179;DHT22;51849;47.476;8.084;2022-07-06T19:34:16;21.60;51.50
65179;DHT22;51849;47.476;8.084;2022-07-06T19:36:42;21.70;50.30
65179;DHT22;51849;47.476;8.084;2022-07-06T19:39:08;21.50;50.30
65179;DHT22;51849;47.476;8.084;2022-07-06T19:41:37;21.40;50.10
65179;DHT22;51849;47.476;8.084;2022-07-06T19:44:02;21.20;51.00
65179;DHT22;51849;47.476;8.084;2022-07-06T19:46:30;21.10;51.00